Station: Smithton  

  Atmospheric Gas Attenuation - ITU Rec 676-11   ----------------- dB/100km -----------------
Date Time Temp RH % AH g/m3 Dew Point Wind Direction Speed kph Gust kph Barometer mB Rainfall Since 9am 24GHz 47GHz 76GHz 122GHz 134GHz 241GHz
03/05 17:30 14.1 90 10.92 12.5 9 11 1009.2 22.2 24.6 29.5 49.1 129.4 129.4 447.0
03/05 17:20 14.6 90 11.26 13 9 11 1009 22.2 25.3 30.0 50.3 132.5 133.4 461.0
03/05 17:10 15 91 11.67 13.5 11 13 1008.9 22.2 26.1 30.5 51.8 136.5 138.5 479.0
03/05 17:00 15 91 11.67 13.5 13 20 1008.9 22.2 26.1 30.5 51.8 136.5 138.5 479.0
03/05 16:50 14.9 91 11.6 13.4 13 15 1008.9 22.2 26.0 30.4 51.6 135.9 137.7 476.1
03/05 16:40 15.3 91 11.88 13.8 19 22 1008.8 22.2 26.6 30.8 52.5 138.4 141.0 487.7
03/05 16:30 15.8 92 12.38 14.5 24 35 1008.8 22.2 27.6 31.5 54.4 143.4 147.3 509.7
03/05 16:20 16.9 93 13.38 15.8 30 37 1008.5 22.2 29.7 32.9 58.0 153.2 159.7 553.2
03/05 16:10 16.9 93 13.38 15.8 24 30 1008.5 22.2 29.7 32.9 58.0 153.2 159.7 553.2
03/05 16:00 17 94 13.6 16 28 39 1008.5 22.2 30.1 33.2 59.0 155.7 162.8 563.8
03/05 15:50 16.9 94 13.52 15.9 28 33 1008.5 22.2 30.0 33.1 58.7 154.9 161.8 560.4
03/05 15:40 16.6 94 13.28 15.6 20 24 1008.4 22.2 29.5 32.8 57.8 152.6 158.9 550.1
03/05 15:30 16.7 93 13.22 15.6 24 33 1008.5 21.4 29.3 32.7 57.5 151.7 157.8 546.4
03/05 15:20 16.8 93 13.3 15.7 17 20 1008.5 21 29.5 32.8 57.8 152.4 158.8 549.8
03/05 15:10 16.9 93 13.38 15.8 24 30 1008.5 21 29.7 32.9 58.0 153.2 159.7 553.2
03/05 15:00 16.9 94 13.52 15.9 22 32 1008.5 21 30.0 33.1 58.7 154.9 161.8 560.4
03/05 14:50 16.8 94 13.44 15.8 22 24 1008.5 21 29.8 33.0 58.4 154.1 160.8 557.0
03/05 14:40 16.8 94 13.44 15.8 22 26 1008.6 21 29.8 33.0 58.4 154.1 160.9 557.0
03/05 14:30 16.9 94 13.52 15.9 26 37 1008.8 21 30.0 33.1 58.7 154.9 161.8 560.5
03/05 14:20 16.8 95 13.58 16 26 32 1008.9 21 30.1 33.3 59.1 155.9 163.0 564.4
03/05 14:10 16.6 95 13.42 15.8 24 28 1008.9 21 29.8 33.1 58.5 154.3 161.0 557.6
03/05 14:00 16.5 95 13.34 15.7 26 39 1008.7 21 29.6 33.0 58.2 153.6 160.0 554.1
03/05 13:50 16.2 95 13.1 15.4 17 20 1008.8 20.8 29.1 32.7 57.3 151.3 157.1 543.9
03/05 13:40 16.2 95 13.1 15.4 26 30 1009.8 16 29.1 32.7 57.4 151.4 157.2 544.3
03/05 13:30 16.5 95 13.34 15.7 32 43 1009 12.6 29.6 33.0 58.2 153.6 160.1 554.2
03/05 13:20 16.5 95 13.34 15.7 39 46 1009.4 11.8 29.6 33.0 58.2 153.6 160.1 554.4
03/05 13:10 16.4 95 13.26 15.6 30 39 1009.1 11.2 29.4 32.9 57.9 152.8 159.1 550.8
03/05 13:00 16.5 95 13.34 15.7 26 54 1009.5 9.8 29.6 33.0 58.2 153.7 160.1 554.4
03/05 12:50 16.3 94 13.04 15.3 20 22 1009.4 7.8 29.0 32.5 57.0 150.4 156.1 540.3
03/05 12:40 16.3 94 13.04 15.3 22 28 1009.3 6.8 29.0 32.5 57.0 150.4 156.1 540.3
03/05 12:30 16.3 94 13.04 15.3 26 33 1009.7 6.2 29.0 32.5 57.0 150.5 156.1 540.4
03/05 12:20 16.4 94 13.12 15.4 28 33 1009.3 4.4 29.1 32.6 57.3 151.2 157.0 543.7
03/05 12:10 16.5 93 13.06 15.4 28 33 1009.3 2.4 29.0 32.5 56.9 150.3 155.9 539.9
03/05 12:00 16.5 93 13.06 15.4 24 37 1009.2 1.2 29.0 32.5 56.9 150.2 155.9 539.8
03/05 11:50 16.5 93 13.06 15.4 20 24 1009.4 1.2 29.0 32.5 57.0 150.3 156.0 539.9
03/05 11:40 16.6 93 13.14 15.5 30 33 1009.3 0.8 29.2 32.6 57.2 151.0 156.9 543.3
03/05 11:30 16.6 92 13 15.3 33 41 1009.6 0.8 28.9 32.4 56.6 149.4 154.9 536.2
03/05 11:20 16.8 92 13.15 15.5 35 41 1009.7 0.4 29.2 32.6 57.2 150.8 156.7 542.5
03/05 11:10 16.8 92 13.15 15.5 30 35 1010.1 0.4 29.2 32.6 57.2 150.9 156.7 542.7
03/05 11:00 16.9 92 13.23 15.6 30 43 1010.4 0.4 29.3 32.7 57.5 151.7 157.7 546.2
03/05 10:50 17 92 13.31 15.7 30 39 1010.6 0.4 29.5 32.8 57.8 152.4 158.7 549.7
03/05 10:40 17.1 93 13.54 16 32 35 1010.8 0.4 30.0 33.2 58.7 155.0 162.0 560.9
03/05 10:30 17 93 13.46 15.9 28 37 1010.9 0.4 29.8 33.1 58.5 154.3 161.0 557.6
03/05 10:20 16.8 94 13.44 15.8 32 37 1010.8 0.4 29.8 33.1 58.5 154.4 161.1 558.0
03/05 10:10 16.7 94 13.36 15.7 30 33 1010.9 0.4 29.6 33.0 58.2 153.7 160.2 554.6
03/05 10:00 16.6 94 13.28 15.6 32 46 1010.9 0.4 29.5 32.9 58.0 152.9 159.2 551.2
03/05 09:50 16.5 94 13.2 15.5 30 39 1011.1 0.4 29.3 32.8 57.7 152.2 158.2 547.8
03/05 09:40 16.4 95 13.26 15.6 30 33 1011.4 0.4 29.4 33.0 58.0 153.1 159.4 551.8
03/05 09:30 16.2 95 13.1 15.4 30 39 1011.7 0.4 29.1 32.8 57.5 151.7 157.4 545.1
03/05 09:20 16.1 95 13.02 15.3 33 39 1011.7 0.4 28.9 32.7 57.2 150.9 156.5 541.6
03/05 09:10 16.1 95 13.02 15.3 33 41 1012 0.2 28.9 32.7 57.2 150.9 156.5 541.8
03/05 09:00 16.1 95 13.02 15.3 32 43 1012.1 0 28.9 32.7 57.2 150.9 156.5 541.8
03/05 08:50 16.1 94 12.88 15.1 26 33 1012.3 11.8 28.6 32.4 56.6 149.3 154.5 534.6
03/05 08:40 16.1 94 12.88 15.1 24 32 1012.7 11.4 28.6 32.5 56.6 149.3 154.5 534.8
03/05 08:30 16.2 94 12.96 15.2 24 30 1012.8 11.4 28.8 32.6 56.9 150.1 155.5 538.3
03/05 08:20 16.2 94 12.96 15.2 22 28 1012.9 11 28.8 32.6 56.9 150.1 155.5 538.3
03/05 08:10 16.2 94 12.96 15.2 26 30 1013 10.6 28.8 32.6 56.9 150.1 155.5 538.3
03/05 08:00 16.1 94 12.88 15.1 22 32 1012.9 10.4 28.6 32.5 56.6 149.4 154.5 534.9
03/05 07:50 16.1 94 12.88 15.1 24 28 1013 10.2 28.6 32.5 56.6 149.4 154.5 534.9
03/05 07:40 16 93 12.67 14.9 26 28 1013.1 9.6 28.2 32.1 55.8 147.1 151.7 524.9
03/05 07:30 16 93 12.67 14.9 24 33 1013 8.8 28.2 32.1 55.8 147.0 151.6 524.8
03/05 07:20 16 93 12.67 14.9 24 28 1012.8 8.4 28.2 32.1 55.8 147.0 151.6 524.7
03/05 07:10 16 92 12.53 14.7 22 28 1012.6 7.6 27.9 31.9 55.1 145.3 149.5 517.5
03/05 07:00 16 92 12.53 14.7 22 32 1012.6 6.8 27.9 31.9 55.1 145.3 149.5 517.5
03/05 06:50 16 92 12.53 14.7 17 19 1012.6 6 27.9 31.9 55.1 145.3 149.5 517.5
03/05 06:40 16 92 12.53 14.7 19 20 1012.2 5.8 27.9 31.8 55.1 145.3 149.5 517.3
03/05 06:30 15.9 92 12.46 14.6 17 24 1012.2 5.6 27.8 31.7 54.9 144.6 148.7 514.4
03/05 06:20 15.9 93 12.59 14.8 15 17 1012.3 5.2 28.0 32.0 55.4 146.2 150.6 521.1
03/05 06:10 15.9 93 12.59 14.8 17 19 1012.2 4.8 28.0 32.0 55.4 146.2 150.6 521.1
03/05 06:00 15.8 93 12.52 14.7 19 26 1012.2 4.8 27.9 31.9 55.2 145.5 149.8 518.2
03/05 05:50 15.8 93 12.52 14.7 17 20 1012.3 4.8 27.9 31.9 55.2 145.5 149.8 518.2
03/05 05:40 15.8 93 12.52 14.7 13 15 1012.5 4.8 27.9 31.9 55.2 145.6 149.8 518.3
03/05 05:30 15.7 93 12.44 14.6 17 24 1012.4 4.8 27.7 31.8 54.9 144.8 148.8 514.8
03/05 05:20 15.8 92 12.38 14.5 19 20 1012.4 4.8 27.6 31.7 54.6 143.9 147.7 511.1
03/05 05:10 15.9 92 12.46 14.6 15 19 1012.5 4.8 27.7 31.8 54.9 144.7 148.7 514.6
03/05 05:00 15.9 92 12.46 14.6 19 26 1012.4 4.8 27.8 31.8 54.9 144.7 148.7 514.5
03/05 04:50 15.9 92 12.46 14.6 15 17 1012.6 4.8 27.7 31.8 54.9 144.7 148.7 514.6
03/05 04:40 15.9 92 12.46 14.6 17 20 1012.7 4.4 27.7 31.8 54.9 144.7 148.7 514.6
03/05 04:30 16 91 12.4 14.5 19 24 1012.8 4.4 27.6 31.6 54.5 143.8 147.7 510.9
03/05 04:20 16.1 91 12.47 14.6 17 20 1013 4.2 27.8 31.7 54.8 144.5 148.5 513.9
03/05 04:10 16.1 91 12.47 14.6 17 17 1013 4 27.8 31.7 54.8 144.5 148.5 513.9
03/05 04:00 16.2 91 12.55 14.7 20 26 1012.9 3.8 27.9 31.8 55.1 145.2 149.5 517.3
03/05 03:50 16.2 90 12.41 14.6 22 26 1012.9 3.6 27.6 31.6 54.5 143.6 147.4 510.2
03/05 03:40 16.2 90 12.41 14.6 22 24 1013.2 3.2 27.6 31.6 54.5 143.6 147.5 510.3
03/05 03:30 16.2 90 12.41 14.6 20 28 1013.5 3 27.6 31.6 54.5 143.6 147.5 510.4
03/05 03:20 16.1 89 12.2 14.3 17 20 1013.6 2.6 27.2 31.3 53.6 141.4 144.7 500.5
03/05 03:10 16.2 89 12.27 14.4 19 20 1013.6 2.2 27.3 31.4 53.9 142.0 145.5 503.3
03/05 03:00 16.1 88 12.06 14.1 15 19 1013.7 1.8 26.9 31.0 53.0 139.7 142.6 493.4
03/05 02:50 16.2 87 12 14 15 17 1013.9 1.6 26.7 30.9 52.7 138.9 141.6 489.9
03/05 02:40 16.4 87 12.14 14.2 17 20 1014 1.4 27.0 31.1 53.2 140.2 143.3 495.6
03/05 02:30 16.6 86 12.15 14.2 19 26 1014 1.4 27.0 31.0 53.1 139.9 143.0 494.9
03/05 02:20 16.6 86 12.15 14.2 19 22 1014 1 27.0 31.0 53.1 139.9 143.0 494.9
03/05 02:10 16.4 86 12 14.1 17 19 1013.8 0.6 26.7 30.8 52.6 138.5 141.2 488.6
03/05 02:00 16.5 87 12.22 14.3 19 24 1013.9 0.6 27.2 31.2 53.5 140.9 144.2 499.0
03/05 01:50 16.3 87 12.07 14.1 17 20 1014 0.6 26.9 31.0 52.9 139.5 142.5 492.8
03/05 01:40 16.2 87 12 14 13 15 1014.3 0.6 26.7 30.9 52.7 138.9 141.7 490.0
03/05 01:30 16.2 87 12 14 13 17 1014.3 0.6 26.7 30.9 52.7 138.9 141.7 490.0
03/05 01:20 16.3 86 11.93 14 13 15 1014.2 0.6 26.6 30.7 52.3 137.9 140.5 485.8
03/05 01:10 16.4 85 11.86 13.9 13 15 1014.1 0.6 26.4 30.6 52.0 136.9 139.3 481.7
03/05 01:00 16.4 84 11.72 13.7 11 13 1014.3 0.6 26.1 30.3 51.4 135.3 137.3 474.8

Last Refresh: 03-May-2026 17:03:05

Bureau of Meteorology